F/V Jeremi Simon — FHAF — position and weather

sailwx.info

Track history (hours):
 
Tides and Currents Weather Stations Pressure Air Temp Water Temp Dewpoint Dewpoint Depression Visibility Wind Speed Wind Dir Waves Ship Positions

F/V Jeremi Simon

Last reported at 2015-Mar-14 12:33 UTC. Time now 2015-Mar-31 12:44 UTC.
Position N 46°41' W 001°57'.
Warning: this ship's position is 17 days out of date.

Length 20 m.

Type: Other ship. MMSI: 227415000.

Date/timePositionNaut miles runAvg speedWind from/ knotsBaromVisibWave heightAir tempDewpointWater temp
2015-Mar-14 12:33N 46°41' W 001°57'8 7.8
2015-Mar-14 11:33N 46°43' W 002°08'  
2015-Mar-10 03:13N 46°51' W 003°14'16 8.6
2015-Mar-10 01:24N 46°46' W 002°52'8 9.0
2015-Mar-10 00:32N 46°42' W 002°42'11 9.4
2015-Mar-09 23:20N 46°38' W 002°26'8 9.6
2015-Mar-09 22:32N 46°36' W 002°16'9 9.6
2015-Mar-09 21:33N 46°32' W 002°03'9 9.3
2015-Mar-09 20:33N 46°29' W 001°51'3 2.7
2015-Mar-09 19:33N 46°30' W 001°47'0 0.0
2015-Mar-09 18:33N 46°30' W 001°47'1 1.5
2015-Mar-09 17:33N 46°28' W 001°48'1010.3
2015-Mar-09 16:32N 46°32' W 002°02'1310.3
2015-Mar-09 15:18N 46°37' W 002°19'136 3.8
2015-Mar-08 03:24N 47°26' W 005°26'2 2.9
2015-Mar-08 02:33N 47°28' W 005°23'2 2.3
2015-Mar-08 01:33N 47°26' W 005°26'1 0.7
2015-Mar-08 00:14N 47°27' W 005°27'3 3.4
2015-Mar-07 23:30N 47°29' W 005°27'1 0.7
2015-Mar-07 22:33N 47°28' W 005°27'4 3.6
2015-Mar-07 21:33N 47°25' W 005°26'4 3.4
2015-Mar-07 20:18N 47°22' W 005°22'4 3.9
2015-Mar-07 19:23N 47°20' W 005°17'75 9.2
2015-Mar-07 11:11N 46°60' W 003°30'710.0
2015-Mar-07 10:32N 46°58' W 003°21'1010.1
2015-Mar-07 09:31N 46°55' W 003°07'1010.0
2015-Mar-07 08:32N 46°52' W 002°53'10 9.7
2015-Mar-07 07:33N 46°49' W 002°40'10 9.5
2015-Mar-07 06:33N 46°46' W 002°26'10 9.8
2015-Mar-07 05:33N 46°44' W 002°13'9 9.4
2015-Mar-07 04:33N 46°41' W 001°59'2 0.0
2015-Mar-05 04:08N 46°42' W 001°57'4 6.4
2015-Mar-05 03:33N 46°38' W 001°57'9 9.1
2015-Mar-05 02:33N 46°30' W 001°52'3 3.5
2015-Mar-05 01:33N 46°30' W 001°47'0 0.0
2015-Mar-05 00:33N 46°30' W 001°47'0 0.0
2015-Mar-04 23:33N 46°30' W 001°47'2 2.1
2015-Mar-04 22:33N 46°28' W 001°49'10 9.6
2015-Mar-04 21:33N 46°31' W 002°03'12 9.6
2015-Mar-04 20:15N 46°35' W 002°20'  
Track history (hours):
 
Tides and Currents Weather Stations Pressure Air Temp Water Temp Dewpoint Dewpoint Depression Visibility Wind Speed Wind Dir Waves Ship Positions

F/V Jeremi Simon

Last reported at 2015-Mar-14 12:33 UTC. Time now 2015-Mar-31 12:44 UTC.
Position N 46°41' W 001°57'.
Warning: this ship's position is 17 days out of date.

Length 20 m.

Type: Other ship. MMSI: 227415000.

Date/timePositionNaut miles runAvg speedWind from/ knotsBaromVisibWave heightAir tempDewpointWater temp
2015-Mar-14 12:33N 46°41' W 001°57'8 7.8
2015-Mar-14 11:33N 46°43' W 002°08'  
2015-Mar-10 03:13N 46°51' W 003°14'16 8.6
2015-Mar-10 01:24N 46°46' W 002°52'8 9.0
2015-Mar-10 00:32N 46°42' W 002°42'11 9.4
2015-Mar-09 23:20N 46°38' W 002°26'8 9.6
2015-Mar-09 22:32N 46°36' W 002°16'9 9.6
2015-Mar-09 21:33N 46°32' W 002°03'9 9.3
2015-Mar-09 20:33N 46°29' W 001°51'3 2.7
2015-Mar-09 19:33N 46°30' W 001°47'0 0.0
2015-Mar-09 18:33N 46°30' W 001°47'1 1.5
2015-Mar-09 17:33N 46°28' W 001°48'1010.3
2015-Mar-09 16:32N 46°32' W 002°02'1310.3
2015-Mar-09 15:18N 46°37' W 002°19'136 3.8
2015-Mar-08 03:24N 47°26' W 005°26'2 2.9
2015-Mar-08 02:33N 47°28' W 005°23'2 2.3
2015-Mar-08 01:33N 47°26' W 005°26'1 0.7
2015-Mar-08 00:14N 47°27' W 005°27'3 3.4
2015-Mar-07 23:30N 47°29' W 005°27'1 0.7
2015-Mar-07 22:33N 47°28' W 005°27'4 3.6
2015-Mar-07 21:33N 47°25' W 005°26'4 3.4
2015-Mar-07 20:18N 47°22' W 005°22'4 3.9
2015-Mar-07 19:23N 47°20' W 005°17'75 9.2
2015-Mar-07 11:11N 46°60' W 003°30'710.0
2015-Mar-07 10:32N 46°58' W 003°21'1010.1
2015-Mar-07 09:31N 46°55' W 003°07'1010.0
2015-Mar-07 08:32N 46°52' W 002°53'10 9.7
2015-Mar-07 07:33N 46°49' W 002°40'10 9.5
2015-Mar-07 06:33N 46°46' W 002°26'10 9.8
2015-Mar-07 05:33N 46°44' W 002°13'9 9.4
2015-Mar-07 04:33N 46°41' W 001°59'2 0.0
2015-Mar-05 04:08N 46°42' W 001°57'4 6.4
2015-Mar-05 03:33N 46°38' W 001°57'9 9.1
2015-Mar-05 02:33N 46°30' W 001°52'3 3.5
2015-Mar-05 01:33N 46°30' W 001°47'0 0.0
2015-Mar-05 00:33N 46°30' W 001°47'0 0.0
2015-Mar-04 23:33N 46°30' W 001°47'2 2.1
2015-Mar-04 22:33N 46°28' W 001°49'10 9.6
2015-Mar-04 21:33N 46°31' W 002°03'12 9.6
2015-Mar-04 20:15N 46°35' W 002°20'  

Dump ship's entire track history